createdAt,value
2017-10-20T00:00:41.941Z,41.57
2017-10-20T00:03:09.610Z,38.90
2017-10-20T00:05:37.203Z,32.87
2017-10-20T00:08:04.826Z,35.60
2017-10-20T00:10:32.425Z,36.17
2017-10-20T00:13:00.038Z,32.97
2017-10-20T00:15:27.591Z,33.50
2017-10-20T00:17:55.170Z,33.90
2017-10-20T00:20:22.754Z,43.20
2017-10-20T00:22:50.337Z,35.97
2017-10-20T00:25:17.913Z,33.47
2017-10-20T00:27:45.542Z,42.90
2017-10-20T00:30:13.125Z,34.20
2017-10-20T00:32:40.685Z,32.40
2017-10-20T00:35:08.283Z,38.63
2017-10-20T00:37:35.896Z,29.43
2017-10-20T00:40:03.511Z,42.40
2017-10-20T00:42:31.086Z,38.87
2017-10-20T00:44:58.647Z,38.93
2017-10-20T00:47:26.221Z,31.83
2017-10-20T00:49:53.797Z,33.87
2017-10-20T00:52:21.549Z,29.53
2017-10-20T00:54:49.165Z,34.37
2017-10-20T00:57:16.753Z,33.73
2017-10-20T00:59:44.357Z,34.40
2017-10-20T01:02:11.976Z,39.10
2017-10-20T01:04:39.539Z,31.00
2017-10-20T01:07:07.215Z,25.77
2017-10-20T01:09:34.828Z,24.70
2017-10-20T01:12:02.404Z,23.57
2017-10-20T01:14:29.962Z,25.63
2017-10-20T01:16:57.560Z,36.90
2017-10-20T01:19:25.133Z,27.57
2017-10-20T01:21:52.704Z,30.90
2017-10-20T01:24:20.268Z,32.33
2017-10-20T01:26:47.841Z,26.13
2017-10-20T01:29:15.511Z,30.77
2017-10-20T01:31:43.082Z,29.00
2017-10-20T01:34:10.729Z,23.10
2017-10-20T01:36:38.339Z,31.43
2017-10-20T01:39:06.070Z,28.30
2017-10-20T01:41:33.640Z,27.93
2017-10-20T01:44:01.368Z,29.13
2017-10-20T01:46:28.919Z,26.40
2017-10-20T01:48:56.491Z,29.20
2017-10-20T01:51:24.095Z,28.23
2017-10-20T01:53:52.079Z,23.07
2017-10-20T01:56:20.040Z,33.80
2017-10-20T01:58:47.825Z,27.30
2017-10-20T02:01:15.587Z,23.70
2017-10-20T02:03:43.178Z,28.17
2017-10-20T02:06:10.763Z,24.20
2017-10-20T02:08:38.325Z,24.80
2017-10-20T02:11:05.899Z,37.87
2017-10-20T02:13:33.657Z,33.40
2017-10-20T02:16:02.298Z,28.00
2017-10-20T02:18:29.865Z,29.17
2017-10-20T02:20:57.602Z,27.57
2017-10-20T02:23:25.168Z,31.37
2017-10-20T02:25:52.729Z,28.47
2017-10-20T02:28:20.431Z,29.87
2017-10-20T02:30:47.997Z,28.30
2017-10-20T02:33:16.983Z,31.63
2017-10-20T02:35:44.644Z,30.03
2017-10-20T02:38:12.211Z,26.47
2017-10-20T02:40:39.770Z,25.43
2017-10-20T02:43:07.909Z,29.47
2017-10-20T02:45:35.603Z,25.83
2017-10-20T02:48:03.169Z,25.93
2017-10-20T02:50:30.753Z,32.87
2017-10-20T02:52:58.322Z,32.87
2017-10-20T02:55:25.914Z,34.73
2017-10-20T02:57:53.486Z,34.10
2017-10-20T03:00:21.087Z,29.10
2017-10-20T03:02:48.686Z,29.73
2017-10-20T03:05:16.303Z,30.93
2017-10-20T03:07:43.875Z,31.20
2017-10-20T03:10:11.829Z,32.77
2017-10-20T03:12:39.406Z,38.67
2017-10-20T03:15:07.005Z,36.23
2017-10-20T03:17:34.563Z,28.60
2017-10-20T03:20:02.187Z,30.30
2017-10-20T03:22:29.802Z,32.13
2017-10-20T03:24:57.369Z,32.03
2017-10-20T03:27:25.445Z,36.67
2017-10-20T03:29:53.018Z,42.33
2017-10-20T03:32:20.809Z,37.40
2017-10-20T03:34:48.375Z,38.57
2017-10-20T03:37:15.927Z,40.27
2017-10-20T03:39:45.251Z,42.80
2017-10-20T03:42:12.830Z,44.17
2017-10-20T03:44:40.347Z,48.67
2017-10-20T03:47:08.045Z,51.20
2017-10-20T03:49:35.628Z,75.37
2017-10-20T03:52:03.218Z,68.43
2017-10-20T03:54:30.768Z,62.53
2017-10-20T03:56:58.485Z,65.50
2017-10-20T03:59:26.045Z,59.13
2017-10-20T04:01:53.953Z,61.23
2017-10-20T04:04:21.623Z,53.03
2017-10-20T04:06:49.223Z,41.40
2017-10-20T04:09:16.782Z,37.07
2017-10-20T04:11:44.367Z,45.03
2017-10-20T04:14:11.981Z,39.80
2017-10-20T04:16:39.609Z,39.23
2017-10-20T04:19:07.225Z,34.03
2017-10-20T04:21:35.684Z,30.33
2017-10-20T04:24:03.244Z,30.17
2017-10-20T04:26:30.833Z,34.83
2017-10-20T04:28:58.435Z,22.73
2017-10-20T04:31:26.908Z,23.40
2017-10-20T04:33:54.494Z,24.73
2017-10-20T04:36:22.590Z,23.80
2017-10-20T04:38:50.206Z,33.67
2017-10-20T04:41:17.777Z,32.10
2017-10-20T04:43:45.341Z,37.20
2017-10-20T04:46:12.922Z,34.87
2017-10-20T04:48:40.463Z,39.00
2017-10-20T04:51:08.039Z,40.20
2017-10-20T04:53:35.623Z,41.13
2017-10-20T04:56:03.189Z,44.43
2017-10-20T04:58:30.785Z,37.67
2017-10-20T05:00:58.344Z,33.53
2017-10-20T05:03:26.421Z,34.50
2017-10-20T05:05:54.095Z,48.77
2017-10-20T05:08:21.658Z,46.33
2017-10-20T05:10:49.228Z,42.93
2017-10-20T05:13:16.809Z,45.60
2017-10-20T05:15:44.375Z,45.27
2017-10-20T05:18:11.931Z,41.07
2017-10-20T05:20:39.501Z,45.00
2017-10-20T05:23:07.078Z,48.93
2017-10-20T05:25:34.645Z,41.73
2017-10-20T05:28:02.262Z,56.87
2017-10-20T05:30:30.322Z,52.67
2017-10-20T05:32:57.928Z,49.40
2017-10-20T05:35:25.508Z,55.53
2017-10-20T05:37:53.103Z,56.60
2017-10-20T05:40:20.819Z,53.80
2017-10-20T05:42:49.228Z,58.27
2017-10-20T05:45:16.801Z,63.37
2017-10-20T05:47:44.372Z,58.13
2017-10-20T05:50:11.951Z,64.90
2017-10-20T05:52:39.559Z,53.97
2017-10-20T05:55:07.144Z,52.30
2017-10-20T05:57:34.709Z,55.57
2017-10-20T06:00:02.328Z,42.80
2017-10-20T06:02:29.909Z,59.13
2017-10-20T06:04:57.530Z,47.90
2017-10-20T06:07:25.112Z,40.30
2017-10-20T06:09:52.669Z,68.13
2017-10-20T06:12:20.306Z,56.97
2017-10-20T06:14:47.926Z,53.37
2017-10-20T06:17:15.504Z,42.33
2017-10-20T06:19:43.096Z,53.50
2017-10-20T06:22:10.662Z,37.40
2017-10-20T06:24:39.052Z,38.10
2017-10-20T06:27:06.685Z,38.63
2017-10-20T06:29:34.690Z,38.40
2017-10-20T06:32:03.660Z,38.30
2017-10-20T06:34:31.505Z,39.77
2017-10-20T06:36:59.043Z,52.60
2017-10-20T06:39:26.676Z,48.73
2017-10-20T06:41:55.019Z,54.63
2017-10-20T06:44:22.600Z,57.73
2017-10-20T06:46:50.190Z,47.77
2017-10-20T06:49:17.929Z,55.27
2017-10-20T06:51:45.501Z,42.00
2017-10-20T06:54:13.137Z,35.33
2017-10-20T06:56:40.722Z,42.90
2017-10-20T06:59:08.287Z,49.33
2017-10-20T07:01:35.921Z,54.13
2017-10-20T07:04:03.468Z,57.50
2017-10-20T07:06:31.078Z,53.20
2017-10-20T07:08:58.671Z,59.50
2017-10-20T07:11:26.335Z,73.20
2017-10-20T07:13:54.010Z,103.97
2017-10-20T07:16:22.625Z,51.43
2017-10-20T07:21:51.328Z,58.30
2017-10-20T07:24:18.874Z,54.40
2017-10-20T07:26:48.567Z,46.10
2017-10-20T07:29:16.182Z,57.87
2017-10-20T07:31:43.741Z,68.40
2017-10-20T07:34:11.294Z,66.13
2017-10-20T07:36:38.842Z,57.33
2017-10-20T07:39:06.511Z,60.63
2017-10-20T07:41:34.065Z,57.20
2017-10-20T07:44:01.639Z,54.43
2017-10-20T07:46:29.253Z,56.80
2017-10-20T07:48:56.829Z,52.70
2017-10-20T07:51:24.423Z,51.10
2017-10-20T07:53:52.002Z,51.43
2017-10-20T07:56:19.604Z,59.50
2017-10-20T07:58:47.171Z,58.50
2017-10-20T08:01:14.862Z,65.50
2017-10-20T08:03:42.433Z,60.33
2017-10-20T08:06:10.103Z,67.00
2017-10-20T08:08:37.689Z,73.23
2017-10-20T08:11:05.294Z,68.17
2017-10-20T08:13:32.842Z,76.70
2017-10-20T08:16:00.460Z,72.87
2017-10-20T08:18:28.177Z,72.73
2017-10-20T08:20:55.733Z,84.00
2017-10-20T08:23:24.542Z,70.93
2017-10-20T08:25:52.166Z,99.90
2017-10-20T08:28:19.796Z,78.70
2017-10-20T08:30:47.379Z,70.60
2017-10-20T08:33:14.938Z,68.63
2017-10-20T08:35:42.555Z,60.30
2017-10-20T08:38:10.146Z,71.63
2017-10-20T08:40:37.708Z,64.90
2017-10-20T08:43:05.544Z,74.77
2017-10-20T08:45:33.104Z,72.23
2017-10-20T08:48:00.711Z,70.33
2017-10-20T08:50:28.435Z,69.60
2017-10-20T08:52:56.156Z,70.93
2017-10-20T08:55:23.754Z,73.87
2017-10-20T08:57:51.344Z,79.43
2017-10-20T09:00:19.008Z,79.63
2017-10-20T09:02:46.568Z,66.00
2017-10-20T09:05:14.142Z,69.63
2017-10-20T09:07:41.696Z,69.03
2017-10-20T09:10:09.274Z,67.83
2017-10-20T09:12:36.932Z,77.00
2017-10-20T09:15:04.557Z,75.43
2017-10-20T09:17:32.136Z,71.97
2017-10-20T09:19:59.705Z,65.43
2017-10-20T09:22:27.294Z,66.83
2017-10-20T09:24:54.872Z,71.97
2017-10-20T09:27:22.950Z,73.70
2017-10-20T09:29:50.523Z,73.80
2017-10-20T09:32:18.137Z,71.33
2017-10-20T09:34:45.738Z,73.33
2017-10-20T09:37:13.544Z,68.97
2017-10-20T09:39:41.096Z,72.23
2017-10-20T09:42:08.690Z,62.30
2017-10-20T09:44:36.254Z,63.53
2017-10-20T09:47:03.929Z,66.93
2017-10-20T09:49:31.670Z,65.40
2017-10-20T09:51:59.284Z,80.80
2017-10-20T09:54:26.966Z,70.77
2017-10-20T09:56:54.576Z,60.23
2017-10-20T09:59:22.238Z,66.23
2017-10-20T10:01:49.829Z,65.73
2017-10-20T10:04:17.506Z,75.40
2017-10-20T10:06:45.230Z,59.77
2017-10-20T10:09:13.829Z,58.23
2017-10-20T10:11:41.591Z,63.87
2017-10-20T10:14:09.220Z,62.70
2017-10-20T10:16:37.006Z,58.67
2017-10-20T10:19:04.595Z,52.27
2017-10-20T10:21:32.197Z,59.13
2017-10-20T10:23:59.835Z,65.10
2017-10-20T10:26:27.426Z,63.90
2017-10-20T10:28:54.988Z,69.50
2017-10-20T10:31:22.597Z,58.13
2017-10-20T10:33:50.238Z,54.70
2017-10-20T10:36:17.992Z,55.73
2017-10-20T10:38:45.660Z,52.43
2017-10-20T10:41:14.378Z,61.20
2017-10-20T10:43:41.952Z,57.20
2017-10-20T10:46:09.544Z,51.37
2017-10-20T10:48:38.513Z,58.57
2017-10-20T10:51:07.065Z,61.97
2017-10-20T10:53:35.589Z,50.83
2017-10-20T10:56:03.200Z,55.40
2017-10-20T10:58:30.851Z,50.20
2017-10-20T11:00:58.420Z,58.80
2017-10-20T11:03:26.292Z,67.80
2017-10-20T11:06:05.702Z,55.70
2017-10-20T11:08:44.966Z,48.63
2017-10-20T11:11:24.359Z,52.60
2017-10-20T11:13:51.978Z,55.67
2017-10-20T11:16:19.582Z,54.10
2017-10-20T11:18:47.172Z,51.70
2017-10-20T11:21:15.115Z,52.40
2017-10-20T11:23:42.746Z,55.70
2017-10-20T11:26:10.392Z,53.10
2017-10-20T11:28:37.988Z,51.30
2017-10-20T11:31:05.865Z,52.30
2017-10-20T11:33:33.526Z,56.53
2017-10-20T11:36:01.094Z,55.87
2017-10-20T11:38:28.712Z,58.93
2017-10-20T11:40:56.353Z,62.87
2017-10-20T11:43:24.948Z,51.43
2017-10-20T11:45:52.582Z,62.43
2017-10-20T11:48:20.317Z,60.77
2017-10-20T11:50:48.009Z,52.80
2017-10-20T11:53:16.256Z,49.43
2017-10-20T11:55:43.910Z,52.93
2017-10-20T11:58:11.523Z,50.93
2017-10-20T12:00:39.166Z,51.70
2017-10-20T12:03:06.818Z,55.17
2017-10-20T12:05:34.442Z,49.83
2017-10-20T12:08:02.025Z,49.63
2017-10-20T12:10:30.288Z,53.83
2017-10-20T12:12:58.078Z,58.60
2017-10-20T12:15:25.687Z,55.83
2017-10-20T12:17:53.302Z,51.93
2017-10-20T12:20:21.044Z,52.77
2017-10-20T12:22:48.618Z,49.47
2017-10-20T12:25:16.221Z,51.60
2017-10-20T12:27:43.802Z,53.97
2017-10-20T12:30:11.421Z,57.27
2017-10-20T12:32:39.009Z,59.00
2017-10-20T12:35:06.673Z,48.60
2017-10-20T12:37:34.297Z,63.83
2017-10-20T12:40:01.874Z,54.53
2017-10-20T12:42:29.445Z,46.90
2017-10-20T12:44:57.074Z,63.17
2017-10-20T12:47:24.986Z,57.40
2017-10-20T12:49:52.567Z,58.77
2017-10-20T12:52:21.153Z,62.80
2017-10-20T12:54:48.769Z,59.03
2017-10-20T12:57:16.316Z,64.30
2017-10-20T12:59:43.886Z,63.87
2017-10-20T13:02:11.466Z,65.50
2017-10-20T13:04:39.082Z,71.40
2017-10-20T13:07:06.794Z,57.60
2017-10-20T13:09:34.418Z,60.17
2017-10-20T13:12:02.002Z,59.10
2017-10-20T13:14:29.619Z,53.60
2017-10-20T13:16:57.186Z,62.70
2017-10-20T13:19:25.649Z,68.23
2017-10-20T13:21:53.258Z,60.20
2017-10-20T13:24:21.891Z,50.07
2017-10-20T13:26:49.492Z,56.97
2017-10-20T13:29:17.262Z,59.17
2017-10-20T13:31:44.907Z,59.40
2017-10-20T13:34:12.471Z,57.30
2017-10-20T13:36:40.067Z,52.27
2017-10-20T13:39:07.685Z,71.50
2017-10-20T13:41:35.290Z,55.90
2017-10-20T13:44:02.891Z,55.10
2017-10-20T13:46:30.529Z,54.47
2017-10-20T13:48:58.109Z,62.90
2017-10-20T13:51:25.898Z,58.40
2017-10-20T13:53:53.585Z,64.20
2017-10-20T13:56:21.161Z,62.93
2017-10-20T13:58:48.721Z,57.07
2017-10-20T14:01:16.302Z,57.03
2017-10-20T14:03:44.053Z,57.23
2017-10-20T14:06:12.561Z,56.63
2017-10-20T14:08:40.099Z,109.97
2017-10-20T14:11:07.739Z,91.57
2017-10-20T14:13:35.557Z,70.53
2017-10-20T14:16:03.160Z,68.87
2017-10-20T14:18:30.886Z,62.20
2017-10-20T14:21:01.427Z,52.23
2017-10-20T14:23:29.308Z,67.23
2017-10-20T14:25:56.956Z,56.50
2017-10-20T14:28:24.576Z,56.47
2017-10-20T14:30:54.730Z,59.43
2017-10-20T14:33:22.343Z,51.30
2017-10-20T14:35:50.337Z,55.50
2017-10-20T14:38:17.984Z,55.63
2017-10-20T14:40:51.121Z,54.53
2017-10-20T14:43:18.836Z,58.33
2017-10-20T14:45:46.464Z,52.40
2017-10-20T14:48:14.114Z,72.20
2017-10-20T14:50:41.786Z,65.60
2017-10-20T14:53:11.125Z,59.17
2017-10-20T14:55:38.739Z,62.03
2017-10-20T14:58:06.295Z,58.77
2017-10-20T15:00:36.960Z,68.57
2017-10-20T15:03:05.067Z,76.70
2017-10-20T15:05:32.865Z,66.93
2017-10-20T15:08:00.457Z,67.90
2017-10-20T15:10:30.163Z,85.17
2017-10-20T15:12:57.790Z,75.87
2017-10-20T15:15:25.874Z,80.87
2017-10-20T15:17:53.448Z,76.00
2017-10-20T15:20:21.037Z,68.03
2017-10-20T15:22:48.673Z,71.20
2017-10-20T15:25:16.302Z,78.90
2017-10-20T15:27:43.881Z,78.90
2017-10-20T15:30:11.475Z,74.73
2017-10-20T15:32:39.041Z,77.60
2017-10-20T15:35:06.599Z,91.87
2017-10-20T15:37:34.183Z,87.83
2017-10-20T15:40:01.747Z,73.30
2017-10-20T15:42:29.321Z,121.90
2017-10-20T15:44:56.890Z,79.43
2017-10-20T15:47:24.468Z,80.37
2017-10-20T15:49:52.038Z,76.27
2017-10-20T15:52:19.686Z,85.13
2017-10-20T15:54:47.252Z,81.83
2017-10-20T15:57:15.072Z,92.30
2017-10-20T15:59:42.658Z,124.67
2017-10-20T16:02:10.319Z,86.70
2017-10-20T16:04:37.897Z,156.20
2017-10-20T16:07:05.652Z,99.33
2017-10-20T16:09:33.206Z,116.47
2017-10-20T16:12:00.935Z,120.10
2017-10-20T16:14:28.673Z,114.30
2017-10-20T16:16:56.254Z,132.53
2017-10-20T16:19:23.895Z,87.77
2017-10-20T16:21:51.490Z,87.83
2017-10-20T16:24:19.286Z,221.60
2017-10-20T16:26:47.045Z,466.97
2017-10-20T16:29:14.659Z,195.67
2017-10-20T16:31:42.325Z,135.00
2017-10-20T16:34:09.875Z,195.53
2017-10-20T16:36:37.485Z,227.20
2017-10-20T16:39:05.166Z,294.73
2017-10-20T16:41:32.775Z,222.27
2017-10-20T16:44:00.391Z,205.87
2017-10-20T16:46:27.986Z,245.70
2017-10-20T16:48:55.568Z,185.60
2017-10-20T16:51:23.176Z,106.27
2017-10-20T16:53:50.785Z,256.40
2017-10-20T16:56:18.387Z,199.23
2017-10-20T16:58:46.030Z,259.37
2017-10-20T17:01:13.582Z,225.73
2017-10-20T17:03:41.133Z,299.77
2017-10-20T17:06:08.708Z,326.40
2017-10-20T17:08:36.395Z,219.33
2017-10-20T17:11:03.976Z,224.20
2017-10-20T17:13:31.542Z,155.53
2017-10-20T17:15:59.111Z,222.47
2017-10-20T17:18:26.677Z,120.43
2017-10-20T17:23:45.488Z,190.77
2017-10-20T17:26:13.091Z,206.20
2017-10-20T17:28:40.644Z,192.27
2017-10-20T17:31:08.457Z,212.67
2017-10-20T17:33:36.369Z,164.23
2017-10-20T17:36:04.117Z,189.57
2017-10-20T17:38:31.740Z,148.97
2017-10-20T17:40:59.306Z,156.40
2017-10-20T17:43:26.927Z,176.03
2017-10-20T17:45:54.576Z,145.90
2017-10-20T17:48:22.232Z,143.23
2017-10-20T17:50:49.822Z,151.47
2017-10-20T17:53:17.389Z,136.30
2017-10-20T17:55:44.993Z,140.40
2017-10-20T17:58:12.578Z,141.00
2017-10-20T18:00:40.164Z,123.37
2017-10-20T18:03:09.628Z,135.63
2017-10-20T18:05:37.192Z,89.70
2017-10-20T18:08:04.775Z,80.37
2017-10-20T18:10:32.366Z,67.70
2017-10-20T18:12:59.943Z,69.57
2017-10-20T18:15:27.532Z,64.77
2017-10-20T18:17:55.392Z,129.07
2017-10-20T18:20:22.985Z,62.73
2017-10-20T18:22:50.617Z,64.13
2017-10-20T18:25:18.251Z,84.00
2017-10-20T18:27:45.840Z,100.13
2017-10-20T18:30:13.405Z,98.80
2017-10-20T18:32:41.027Z,143.53
2017-10-20T18:35:08.625Z,128.70
2017-10-20T18:37:36.210Z,130.37
2017-10-20T18:40:03.819Z,144.57
2017-10-20T18:42:31.405Z,93.37
2017-10-20T18:44:58.968Z,76.60
2017-10-20T18:47:26.567Z,67.03
2017-10-20T18:49:54.119Z,72.17
2017-10-20T18:52:21.818Z,82.10
2017-10-20T18:54:49.490Z,76.97
2017-10-20T18:57:17.061Z,129.10
2017-10-20T18:59:44.613Z,91.97
2017-10-20T19:02:12.223Z,91.27
2017-10-20T19:04:39.782Z,114.77
2017-10-20T19:07:07.385Z,113.87
2017-10-20T19:09:34.990Z,108.53
2017-10-20T19:12:02.555Z,122.03
2017-10-20T19:17:20.507Z,84.80
2017-10-20T19:19:48.077Z,137.70
2017-10-20T19:22:15.657Z,129.27
2017-10-20T19:24:43.210Z,89.77
2017-10-20T19:27:10.975Z,93.70
2017-10-20T19:29:38.540Z,76.77
2017-10-20T19:32:06.165Z,61.33
2017-10-20T19:34:33.741Z,69.37
2017-10-20T19:37:01.312Z,110.97
2017-10-20T19:39:28.894Z,56.77
2017-10-20T19:41:56.463Z,38.93
2017-10-20T19:44:24.054Z,33.17
2017-10-20T19:46:51.836Z,33.30
2017-10-20T19:49:19.433Z,32.40
2017-10-20T19:51:47.006Z,38.27
2017-10-20T19:54:14.643Z,30.30
2017-10-20T19:56:42.261Z,30.93
2017-10-20T19:59:09.815Z,30.17
2017-10-20T20:01:37.417Z,30.53
2017-10-20T20:04:05.215Z,37.37
2017-10-20T20:06:32.812Z,48.13
2017-10-20T20:09:00.441Z,52.83
2017-10-20T20:11:28.346Z,53.93
2017-10-20T20:13:55.901Z,58.77
2017-10-20T20:16:24.641Z,67.37
2017-10-20T20:18:52.246Z,69.40
2017-10-20T20:21:20.107Z,70.63
2017-10-20T20:23:47.918Z,51.83
2017-10-20T20:26:15.719Z,53.30
2017-10-20T20:28:43.346Z,38.37
2017-10-20T20:34:08.344Z,33.77
2017-10-20T20:36:48.017Z,45.17
2017-10-20T20:39:15.531Z,26.40
2017-10-20T20:41:43.171Z,30.10
2017-10-20T20:44:10.722Z,25.47
2017-10-20T20:46:38.247Z,37.30
2017-10-20T20:49:05.844Z,23.40
2017-10-20T20:51:33.463Z,22.33
2017-10-20T20:54:00.963Z,27.40
2017-10-20T20:56:28.466Z,27.93
2017-10-20T20:58:56.091Z,20.40
2017-10-20T21:01:23.612Z,20.07
2017-10-20T21:03:51.119Z,19.87
2017-10-20T21:06:18.645Z,23.60
2017-10-20T21:08:46.162Z,19.83
2017-10-20T21:11:13.711Z,19.70
2017-10-20T21:13:41.290Z,18.53
2017-10-20T21:16:10.301Z,24.07
2017-10-20T21:18:37.926Z,19.63
2017-10-20T21:21:05.640Z,20.37
2017-10-20T21:23:33.245Z,28.00
2017-10-20T21:26:00.817Z,16.77
2017-10-20T21:28:28.442Z,21.03
2017-10-20T21:30:56.029Z,22.40
2017-10-20T21:33:23.752Z,21.90
2017-10-20T21:35:51.306Z,24.87
2017-10-20T21:38:18.973Z,25.97
2017-10-20T21:40:46.554Z,26.40
2017-10-20T21:43:14.656Z,25.17
2017-10-20T21:45:42.250Z,26.90
2017-10-20T21:48:09.863Z,28.63
2017-10-20T21:50:37.425Z,21.87
2017-10-20T21:53:05.080Z,26.83
2017-10-20T21:55:32.656Z,24.70
2017-10-20T21:58:00.233Z,19.47
2017-10-20T22:00:27.810Z,22.27
2017-10-20T22:02:55.382Z,26.03
2017-10-20T22:05:23.049Z,23.63
2017-10-20T22:07:50.662Z,22.13
2017-10-20T22:10:18.258Z,24.27
2017-10-20T22:12:45.839Z,18.23
2017-10-20T22:15:13.423Z,18.00
2017-10-20T22:17:41.033Z,17.97
2017-10-20T22:20:08.649Z,22.73
2017-10-20T22:22:36.235Z,23.87
2017-10-20T22:25:03.813Z,21.10
2017-10-20T22:27:31.377Z,30.13
2017-10-20T22:29:59.135Z,28.00
2017-10-20T22:32:26.868Z,29.50
2017-10-20T22:34:54.464Z,27.03
2017-10-20T22:37:22.099Z,24.67
2017-10-20T22:39:49.651Z,24.57
2017-10-20T22:42:17.210Z,26.70
2017-10-20T22:44:44.776Z,25.80
2017-10-20T22:47:13.467Z,25.27
2017-10-20T22:49:41.032Z,24.83
2017-10-20T22:52:08.627Z,23.83
2017-10-20T22:54:36.230Z,24.73
2017-10-20T22:57:03.786Z,15.27
2017-10-20T22:59:31.360Z,16.40
2017-10-20T23:01:58.942Z,16.97
2017-10-20T23:04:26.540Z,23.23
2017-10-20T23:06:54.093Z,22.47
2017-10-20T23:09:22.019Z,21.17
2017-10-20T23:11:49.566Z,27.40
2017-10-20T23:14:17.178Z,33.67
2017-10-20T23:16:44.770Z,35.20
2017-10-20T23:19:12.529Z,36.83
2017-10-20T23:21:40.293Z,28.10
2017-10-20T23:24:07.885Z,29.57
2017-10-20T23:26:35.453Z,28.37
2017-10-20T23:29:03.109Z,33.77
2017-10-20T23:31:30.670Z,21.03
2017-10-20T23:33:58.236Z,25.00
2017-10-20T23:36:25.845Z,16.80
2017-10-20T23:38:53.409Z,15.83
2017-10-20T23:41:21.014Z,26.97
2017-10-20T23:43:48.606Z,21.73
2017-10-20T23:46:16.192Z,16.17
2017-10-20T23:48:43.761Z,16.70
2017-10-20T23:51:11.843Z,28.13
2017-10-20T23:53:39.410Z,23.10
2017-10-20T23:56:07.175Z,20.90
2017-10-20T23:58:34.782Z,21.03
